Terminal Aerodrome Forecast
Issued by NWS

Home | Current Version | Previous Version | Text Only | Print | Product List | Glossary On
Versions: 1 2 3 4 5 6 7 8 9 10 11 12 13 14 15 16 17 18 19 20 21
511
FTUS41 KBGM 301132
TAFITH
TAF
KITH 301132Z 3012/3112 18008KT 2SM -TSRA OVC012CB
     FM301215 18008KT P6SM OVC015
     FM301600 18011KT P6SM -SHRA BKN035
      TEMPO 3019/3022 18013G22KT 4SM -TSRA BR OVC025CB
     FM310200 00000KT P6SM BKN040
     FM310800 18003KT P6SM OVC020=

USA.gov is the U.S. government's official web portal to all federal, state and local government web resources and services.